Time;durP1;ratioP1;P1;durP2;ratioP2;P2;SDS_P1;SDS_P2;PMS_P1;PMS_P2;Temp;Humidity;BMP_temperature;BMP_pressure;BME280_temperature;BME280_humidity;BME280_pressure;Samples;Min_cycle;Max_cycle;Signal;HPM_P1;HPM_P2
2023/08/13 00:00:45;;;;;;;5.80;4.12;;;;;;;25.94;42.46;100098.03;4304345;33;33999;-62
2023/08/13 00:03:13;;;;;;;6.93;4.90;;;;;;;25.94;42.42;100100.75;4317414;33;34526;-63
2023/08/13 00:05:40;;;;;;;7.15;4.40;;;;;;;25.91;42.44;100099.31;4317285;33;34988;-63
2023/08/13 00:08:08;;;;;;;11.63;4.47;;;;;;;25.92;42.40;100094.69;4304118;33;32829;-63
2023/08/13 00:10:38;;;;;;;6.15;4.20;;;;;;;25.93;42.35;100096.38;4317368;33;34009;-63
2023/08/13 00:13:05;;;;;;;6.75;4.15;;;;;;;25.91;42.36;100101.22;4304251;33;33790;-63
2023/08/13 00:15:33;;;;;;;6.45;4.25;;;;;;;25.91;42.27;100099.31;4303982;33;32348;-63
2023/08/13 00:18:00;;;;;;;7.12;4.22;;;;;;;25.91;42.27;100098.47;4292027;33;33776;-63
2023/08/13 00:20:28;;;;;;;6.20;4.32;;;;;;;25.90;42.23;100097.66;4317311;33;34000;-63
2023/08/13 00:22:56;;;;;;;6.55;4.80;;;;;;;25.89;42.33;100101.47;4316978;33;34057;-63
2023/08/13 00:25:23;;;;;;;6.50;4.22;;;;;;;25.90;42.45;100107.75;4303711;33;34048;-62
2023/08/13 00:27:51;;;;;;;6.05;4.12;;;;;;;25.91;42.47;100104.78;4310315;33;34781;-62
2023/08/13 00:30:20;;;;;;;6.37;4.65;;;;;;;25.90;42.46;100105.03;4290935;33;33160;-63
2023/08/13 00:32:48;;;;;;;6.80;4.32;;;;;;;25.91;42.46;100101.22;4303803;33;33904;-62
2023/08/13 00:35:16;;;;;;;8.32;4.55;;;;;;;25.90;42.46;100102.28;4315933;33;33317;-63
2023/08/13 00:37:44;;;;;;;6.90;4.03;;;;;;;25.91;42.43;100102.06;4317065;33;34702;-63
2023/08/13 00:40:12;;;;;;;6.68;4.28;;;;;;;25.90;42.42;100102.28;4315853;33;34556;-64
2023/08/13 00:42:40;;;;;;;5.50;4.03;;;;;;;25.89;42.43;100097.91;4315233;33;33935;-62
2023/08/13 00:45:08;;;;;;;5.47;3.47;;;;;;;25.89;42.41;100092.44;4315264;33;34393;-63
2023/08/13 00:47:36;;;;;;;5.43;3.80;;;;;;;25.89;42.34;100086.97;4278165;33;33150;-63
2023/08/13 00:50:04;;;;;;;8.98;4.15;;;;;;;25.88;42.38;100094.34;4290697;33;34773;-63
2023/08/13 00:52:32;;;;;;;7.20;3.50;;;;;;;25.88;42.37;100088.00;4289689;33;33663;-62
2023/08/13 00:54:59;;;;;;;5.43;3.58;;;;;;;25.88;42.40;100093.47;4290543;33;34339;-62
2023/08/13 00:57:27;;;;;;;4.68;3.45;;;;;;;25.89;42.31;100097.91;4291773;33;34013;-63
2023/08/13 00:59:55;;;;;;;6.53;3.85;;;;;;;25.87;42.16;100097.28;4291628;33;33163;-63
2023/08/13 01:02:22;;;;;;;4.72;3.40;;;;;;;25.88;42.05;100098.94;4316739;33;33726;-63
2023/08/13 01:04:50;;;;;;;8.10;3.40;;;;;;;25.86;42.16;100095.63;4291632;33;33437;-63
2023/08/13 01:07:39;;;;;;;5.50;3.08;;;;;;;25.85;42.14;100103.00;4303490;33;34036;-63
2023/08/13 01:10:18;;;;;;;4.90;3.20;;;;;;;25.87;42.30;100102.75;4292651;33;33914;-63
2023/08/13 01:12:59;;;;;;;14.00;4.03;;;;;;;25.86;42.44;100099.19;4291940;33;34240;-62
2023/08/13 01:15:32;;;;;;;5.10;3.35;;;;;;;25.86;42.47;100101.94;4292060;33;33180;-63
2023/08/13 01:18:01;;;;;;;6.05;3.60;;;;;;;25.85;42.48;100093.97;4291689;33;33663;-64
2023/08/13 01:20:39;;;;;;;5.03;3.50;;;;;;;25.85;42.46;100093.97;4291787;33;33990;-63
2023/08/13 01:23:07;;;;;;;6.68;3.60;;;;;;;25.84;42.45;100089.59;4290274;33;33300;-63
2023/08/13 01:25:35;;;;;;;5.65;3.40;;;;;;;25.84;42.44;100097.78;4288417;33;32350;-63
2023/08/13 01:28:23;;;;;;;4.70;3.10;;;;;;;25.84;42.47;100097.78;4288957;33;34672;-62
2023/08/13 01:31:24;;;;;;;4.97;3.50;;;;;;;25.83;42.36;100107.03;4288792;33;33719;-63
2023/08/13 01:33:52;;;;;;;6.30;3.50;;;;;;;25.87;42.19;100103.59;4274354;33;34498;-63
2023/08/13 01:36:20;;;;;;;5.60;3.20;;;;;;;25.83;42.19;100096.91;4277079;33;33422;-63
2023/08/13 01:38:48;;;;;;;4.15;2.70;;;;;;;25.82;42.17;100097.16;4277093;33;34430;-64
2023/08/13 01:41:15;;;;;;;4.57;2.78;;;;;;;25.82;42.13;100105.37;4264911;33;33283;-62
2023/08/13 01:43:43;;;;;;;4.53;3.10;;;;;;;25.83;42.14;100104.28;4301906;33;33878;-63
2023/08/13 01:46:10;;;;;;;5.78;3.33;;;;;;;25.81;42.18;100112.75;4301705;33;34042;-63
2023/08/13 01:48:38;;;;;;;5.05;2.40;;;;;;;25.81;42.26;100118.19;4276783;33;33928;-62
2023/08/13 01:51:06;;;;;;;5.78;3.10;;;;;;;25.82;42.20;100116.31;4276891;33;34024;-62
2023/08/13 01:53:33;;;;;;;6.03;3.03;;;;;;;25.82;42.13;100110.84;4301746;33;33891;-62
2023/08/13 01:56:01;;;;;;;4.65;2.97;;;;;;;25.81;42.25;100118.19;4301604;33;33223;-63
2023/08/13 01:58:29;;;;;;;5.90;3.12;;;;;;;25.81;42.24;100109.19;4301515;33;34038;-63
2023/08/13 02:00:56;;;;;;;4.65;2.95;;;;;;;25.80;42.10;100111.06;4301564;33;33848;-63
2023/08/13 02:03:24;;;;;;;5.30;3.35;;;;;;;25.81;42.09;100103.72;4301260;33;33941;-63
2023/08/13 02:05:52;;;;;;;7.97;3.25;;;;;;;25.80;42.07;100107.50;4303472;33;33583;-63
2023/08/13 02:08:19;;;;;;;5.97;3.10;;;;;;;25.79;42.12;100109.41;4303642;33;34804;-63
2023/08/13 02:10:47;;;;;;;7.32;3.15;;;;;;;25.80;42.18;100110.25;4303550;33;33556;-63
2023/08/13 02:13:14;;;;;;;4.65;3.25;;;;;;;25.78;42.09;100104.16;4303619;33;34575;-63
2023/08/13 02:15:42;;;;;;;7.82;3.10;;;;;;;25.79;42.07;100103.12;4290493;33;32915;-63
2023/08/13 02:18:10;;;;;;;4.07;2.90;;;;;;;25.79;42.08;100114.06;4303385;33;33606;-63
2023/08/13 02:20:37;;;;;;;5.12;3.37;;;;;;;25.79;42.03;100112.16;4303711;33;34161;-64
2023/08/13 02:23:06;;;;;;;5.72;3.30;;;;;;;25.78;41.96;100109.62;4303571;33;33827;-63
2023/08/13 02:25:33;;;;;;;4.85;3.00;;;;;;;25.78;41.96;100117.84;4301946;33;33598;-63
2023/08/13 02:28:01;;;;;;;4.65;2.80;;;;;;;25.77;41.93;100113.44;4303342;33;33590;-62
2023/08/13 02:30:28;;;;;;;5.55;3.08;;;;;;;25.77;41.96;100116.16;4303726;33;34077;-63
2023/08/13 02:32:56;;;;;;;4.40;2.90;;;;;;;25.77;41.95;100118.91;4302177;33;34020;-64
2023/08/13 02:35:24;;;;;;;5.18;3.28;;;;;;;25.78;41.95;100109.62;4303454;33;32964;-62
2023/08/13 02:37:51;;;;;;;7.43;3.35;;;;;;;25.76;41.92;100119.97;4303421;33;33855;-63
2023/08/13 02:40:19;;;;;;;4.35;2.78;;;;;;;25.76;41.83;100115.34;4303274;33;33993;-63
2023/08/13 02:42:47;;;;;;;5.43;2.90;;;;;;;25.76;41.90;100117.25;4290016;33;33866;-63
2023/08/13 02:45:14;;;;;;;5.03;2.90;;;;;;;25.75;41.93;100121.84;4303357;33;33211;-63
2023/08/13 02:47:43;;;;;;;5.45;3.00;;;;;;;25.75;41.87;100123.75;4301998;33;33500;-63
2023/08/13 02:50:10;;;;;;;5.15;3.12;;;;;;;25.74;41.92;100128.37;4290328;33;33781;-63
2023/08/13 02:52:38;;;;;;;4.93;2.80;;;;;;;25.75;41.93;100123.75;4303679;33;34728;-63
2023/08/13 02:55:06;;;;;;;5.97;2.97;;;;;;;25.74;41.91;100111.13;4302028;33;33371;-63
2023/08/13 02:57:34;;;;;;;6.30;2.95;;;;;;;25.74;41.86;100120.19;4303573;33;33957;-63
2023/08/13 03:00:10;;;;;;;6.57;2.60;;;;;;;25.74;41.80;100116.59;4302014;33;33895;-62
2023/08/13 03:02:38;;;;;;;5.25;3.17;;;;;;;25.74;41.81;100114.72;4303335;33;33616;-63
2023/08/13 03:05:06;;;;;;;6.50;3.20;;;;;;;25.74;41.73;100103.78;4302251;33;32953;-63
2023/08/13 03:07:34;;;;;;;4.97;3.12;;;;;;;25.73;41.63;100104.84;4301944;33;34566;-63
2023/08/13 03:10:02;;;;;;;4.25;3.15;;;;;;;25.72;41.61;100111.37;4303505;33;33984;-64
2023/08/13 03:12:29;;;;;;;5.70;2.95;;;;;;;25.71;41.67;100106.97;4290441;33;33728;-64
2023/08/13 03:14:57;;;;;;;4.25;2.80;;;;;;;25.72;41.73;100118.75;4303421;33;34114;-66
2023/08/13 03:17:25;;;;;;;5.12;3.28;;;;;;;25.73;41.69;100120.41;4303518;33;34729;-65
2023/08/13 03:19:52;;;;;;;4.53;2.75;;;;;;;25.70;41.68;100122.56;4303995;33;33762;-64
2023/08/13 03:22:20;;;;;;;5.00;3.08;;;;;;;25.70;41.61;100119.81;4302910;33;33822;-64
2023/08/13 03:24:48;;;;;;;5.72;3.22;;;;;;;25.70;41.59;100121.72;4278139;33;33889;-64
2023/08/13 03:27:16;;;;;;;3.62;2.62;;;;;;;25.69;41.64;100118.16;4289979;33;33743;-64
2023/08/13 03:29:44;;;;;;;6.07;3.20;;;;;;;25.69;41.65;100117.31;4303211;33;33961;-63
2023/08/13 03:32:12;;;;;;;5.70;3.12;;;;;;;25.70;41.61;100113.53;4290095;33;33418;-65
2023/08/13 03:34:40;;;;;;;5.82;3.00;;;;;;;25.69;41.58;100114.56;4289862;33;31852;-64
2023/08/13 03:37:08;;;;;;;4.25;2.85;;;;;;;25.68;41.55;100108.28;4289688;33;33598;-64
2023/08/13 03:39:36;;;;;;;5.25;2.80;;;;;;;25.68;41.51;100113.75;4290233;33;34834;-65
2023/08/13 03:42:04;;;;;;;5.28;3.17;;;;;;;25.68;41.54;100108.28;4277946;33;34690;-66
2023/08/13 03:44:31;;;;;;;4.75;3.00;;;;;;;25.67;41.52;100109.34;4277997;33;34080;-65
2023/08/13 03:46:59;;;;;;;6.43;2.90;;;;;;;25.67;41.53;100114.81;4313539;33;33549;-64
2023/08/13 03:49:26;;;;;;;5.03;2.87;;;;;;;25.67;41.48;100103.88;4292536;33;34057;-64
2023/08/13 03:51:54;;;;;;;5.00;2.90;;;;;;;25.67;41.45;100105.78;4317745;33;33772;-64
2023/08/13 03:54:22;;;;;;;4.85;3.25;;;;;;;25.65;41.45;100106.03;4304249;33;31723;-64
2023/08/13 03:56:49;;;;;;;5.53;2.80;;;;;;;25.65;41.46;100106.03;4304311;33;34649;-64
2023/08/13 03:59:17;;;;;;;4.32;2.90;;;;;;;25.65;41.44;100106.03;4304189;33;33799;-64
2023/08/13 04:01:45;;;;;;;4.70;2.80;;;;;;;25.65;41.44;100107.94;4304412;33;33575;-64
2023/08/13 04:04:13;;;;;;;5.78;3.28;;;;;;;25.65;41.43;100105.19;4304310;33;33428;-66
2023/08/13 04:06:43;;;;;;;5.72;3.25;;;;;;;25.65;41.40;100106.03;4315774;33;33529;-64
2023/08/13 04:09:10;;;;;;;4.95;2.85;;;;;;;25.65;41.37;100107.94;4304261;33;33669;-65
2023/08/13 04:11:38;;;;;;;4.80;3.22;;;;;;;25.64;41.34;100112.53;4304495;33;33926;-65
2023/08/13 04:14:06;;;;;;;5.95;3.12;;;;;;;25.63;41.39;100110.03;4317382;33;34193;-64
2023/08/13 04:16:34;;;;;;;4.22;2.67;;;;;;;25.63;41.43;100112.78;4317490;33;34655;-65
2023/08/13 04:19:02;;;;;;;4.65;2.90;;;;;;;25.63;41.45;100118.25;4317122;33;34743;-65
2023/08/13 04:21:30;;;;;;;7.28;2.92;;;;;;;25.63;41.42;100110.88;4317553;33;34166;-65
2023/08/13 04:23:57;;;;;;;5.22;3.00;;;;;;;25.62;41.38;100111.13;4280291;33;32359;-64
2023/08/13 04:26:25;;;;;;;4.85;3.10;;;;;;;25.63;41.39;100107.31;4317351;33;34675;-65
2023/08/13 04:28:54;;;;;;;6.32;3.10;;;;;;;25.62;41.39;100106.47;4303296;33;33678;-64
2023/08/13 04:31:22;;;;;;;6.12;3.10;;;;;;;25.62;41.40;100113.84;4317041;33;34083;-64
2023/08/13 04:33:50;;;;;;;6.05;2.80;;;;;;;25.62;41.41;100117.41;4316983;33;33625;-65
2023/08/13 04:36:18;;;;;;;5.68;2.92;;;;;;;25.62;41.38;100122.88;4296934;33;33420;-65
2023/08/13 04:38:45;;;;;;;4.82;2.97;;;;;;;25.61;41.38;100126.69;4305731;33;33902;-64
2023/08/13 04:41:14;;;;;;;4.40;2.75;;;;;;;25.62;41.36;100122.88;4285396;33;34395;-66
2023/08/13 04:43:42;;;;;;;4.40;2.70;;;;;;;25.61;41.34;100129.41;4317100;33;33459;-64
2023/08/13 04:46:10;;;;;;;4.32;2.65;;;;;;;25.60;41.34;100122.28;4307587;33;33675;-65
2023/08/13 04:48:42;;;;;;;4.70;3.17;;;;;;;25.60;41.38;100130.50;4302660;33;33989;-64
2023/08/13 04:51:18;;;;;;;4.75;2.80;;;;;;;25.59;41.47;100125.25;4302764;33;34072;-63
2023/08/13 04:53:47;;;;;;;4.85;2.80;;;;;;;25.60;41.47;100126.91;4285522;33;34276;-65
2023/08/13 04:56:16;;;;;;;4.30;2.92;;;;;;;25.60;41.48;100124.16;4292000;33;32835;-63
2023/08/13 04:58:44;;;;;;;4.95;2.80;;;;;;;25.58;41.46;100127.12;4316871;33;33548;-63
2023/08/13 05:01:11;;;;;;;5.05;2.80;;;;;;;25.59;41.42;100127.97;4303412;33;32826;-63
2023/08/13 05:03:40;;;;;;;4.53;2.80;;;;;;;25.58;41.42;100129.88;4304065;33;34080;-63
2023/08/13 05:06:07;;;;;;;4.07;2.58;;;;;;;25.58;41.44;100138.06;4303398;33;32756;-64
2023/08/13 05:08:35;;;;;;;7.15;3.00;;;;;;;25.58;41.43;100143.53;4289630;33;32703;-64
2023/08/13 05:11:03;;;;;;;5.72;3.12;;;;;;;25.58;41.51;100142.72;4302209;33;33919;-64
2023/08/13 05:13:31;;;;;;;5.97;2.70;;;;;;;25.58;41.51;100146.28;4303806;33;34140;-64
2023/08/13 05:15:58;;;;;;;4.57;2.80;;;;;;;25.59;41.50;100144.38;4316645;33;33675;-63
2023/08/13 05:18:26;;;;;;;5.82;2.80;;;;;;;25.59;41.53;100149.84;4303704;33;34821;-65
2023/08/13 05:20:54;;;;;;;4.47;2.72;;;;;;;25.59;41.54;100149.84;4316559;33;33647;-64
2023/08/13 05:23:22;;;;;;;4.75;2.60;;;;;;;25.58;41.57;100149.00;4315598;33;33507;-66
2023/08/13 05:25:49;;;;;;;5.93;2.90;;;;;;;25.58;41.57;100151.72;4303610;33;33722;-64
2023/08/13 05:28:17;;;;;;;5.25;2.90;;;;;;;25.58;41.58;100148.16;4316622;33;32817;-65
2023/08/13 05:30:45;;;;;;;5.72;2.65;;;;;;;25.58;41.66;100150.91;4316289;33;34336;-65
2023/08/13 05:33:13;;;;;;;5.62;2.62;;;;;;;25.58;41.73;100150.91;4303307;33;32906;-65
2023/08/13 05:35:40;;;;;;;5.20;2.65;;;;;;;25.58;41.71;100159.94;4303500;33;32881;-64
2023/08/13 05:38:08;;;;;;;4.78;2.97;;;;;;;25.58;41.73;100153.63;4316448;33;34019;-65
2023/08/13 05:40:36;;;;;;;4.55;2.70;;;;;;;25.57;41.76;100161.00;4280916;33;32878;-65
2023/08/13 05:43:03;;;;;;;4.97;2.60;;;;;;;25.58;41.81;100159.94;4293164;33;32122;-64
2023/08/13 05:45:31;;;;;;;4.47;2.55;;;;;;;25.58;41.87;100161.84;4304899;33;33938;-64
2023/08/13 05:47:59;;;;;;;4.30;2.72;;;;;;;25.59;41.92;100155.28;4318345;33;33429;-64
2023/08/13 05:50:28;;;;;;;4.05;2.90;;;;;;;25.58;41.91;100150.91;4305327;33;34423;-64
2023/08/13 05:52:56;;;;;;;7.65;3.10;;;;;;;25.59;41.86;100152.56;4293740;33;33419;-65
2023/08/13 05:55:24;;;;;;;5.07;3.10;;;;;;;25.59;41.83;100156.13;4318352;33;34653;-63
2023/08/13 05:57:51;;;;;;;4.57;2.83;;;;;;;25.60;41.92;100154.22;4305156;33;34247;-65
2023/08/13 06:00:19;;;;;;;6.75;3.37;;;;;;;25.59;41.98;100155.28;4304811;33;33842;-64
2023/08/13 06:02:47;;;;;;;4.85;2.92;;;;;;;25.59;42.06;100163.50;4305135;33;32907;-64
2023/08/13 06:05:14;;;;;;;6.03;3.25;;;;;;;25.60;42.06;100168.75;4304859;33;33938;-66
2023/08/13 06:07:42;;;;;;;5.03;3.12;;;;;;;25.59;42.09;100167.06;4318382;33;33467;-64
2023/08/13 06:10:10;;;;;;;4.72;2.92;;;;;;;25.59;42.14;100164.31;4304815;33;34092;-65
2023/08/13 06:12:37;;;;;;;5.57;3.15;;;;;;;25.60;42.14;100166.03;4305001;33;34033;-64
2023/08/13 06:15:05;;;;;;;5.37;2.62;;;;;;;25.61;42.17;100164.12;4304734;33;33455;-66
2023/08/13 06:17:33;;;;;;;8.02;2.97;;;;;;;25.60;42.22;100157.81;4316170;33;34743;-64
2023/08/13 06:20:00;;;;;;;7.07;3.00;;;;;;;25.60;42.22;100163.28;4298025;33;33937;-64
2023/08/13 06:22:28;;;;;;;5.37;3.20;;;;;;;25.60;42.28;100160.56;4284927;33;33185;-64
2023/08/13 06:24:56;;;;;;;8.27;3.08;;;;;;;25.62;42.37;100165.78;4308526;33;32728;-64
2023/08/13 06:27:24;;;;;;;7.10;3.17;;;;;;;25.62;42.40;100163.03;4297748;33;33248;-65
2023/08/13 06:29:51;;;;;;;6.03;3.03;;;;;;;25.63;42.56;100161.97;4310090;33;33515;-64
2023/08/13 06:32:36;;;;;;;4.03;2.60;;;;;;;25.63;42.65;100162.78;4290212;33;34230;-64
2023/08/13 06:35:04;;;;;;;5.53;3.00;;;;;;;25.65;42.69;100170.78;4296112;33;33977;-66
2023/08/13 06:37:32;;;;;;;5.07;3.40;;;;;;;25.65;42.93;100165.31;4291173;33;33912;-65
2023/08/13 06:40:10;;;;;;;5.28;3.30;;;;;;;25.68;43.15;100170.31;4308699;33;34664;-65
2023/08/13 06:42:38;;;;;;;4.62;3.10;;;;;;;25.69;43.25;100169.22;4298191;33;33084;-63
2023/08/13 06:45:06;;;;;;;5.18;3.20;;;;;;;25.69;43.32;100170.09;4290384;33;33210;-63
2023/08/13 06:47:34;;;;;;;6.40;3.65;;;;;;;25.68;43.32;100168.41;4290617;33;33967;-64
2023/08/13 06:50:01;;;;;;;6.20;3.20;;;;;;;25.69;43.36;100170.09;4291967;33;33717;-66
2023/08/13 06:52:29;;;;;;;5.18;3.25;;;;;;;25.69;43.39;100178.28;4303095;33;33315;-64
2023/08/13 06:54:56;;;;;;;5.78;3.40;;;;;;;25.69;43.49;100177.44;4290180;33;34778;-65
2023/08/13 06:57:24;;;;;;;10.75;3.85;;;;;;;25.71;43.59;100183.50;4301317;33;33848;-64
2023/08/13 06:59:51;;;;;;;5.30;3.55;;;;;;;25.70;43.63;100179.94;4287961;33;34102;-65
2023/08/13 07:02:19;;;;;;;7.35;3.70;;;;;;;25.71;43.55;100180.78;4301232;33;34217;-64
2023/08/13 07:04:47;;;;;;;6.37;3.85;;;;;;;25.72;43.62;100182.44;4301333;33;33431;-65
2023/08/13 07:07:15;;;;;;;5.80;3.33;;;;;;;25.73;43.73;100189.56;4288281;33;34735;-66
2023/08/13 07:09:43;;;;;;;5.35;3.08;;;;;;;25.72;43.73;100187.91;4276212;33;33862;-65
2023/08/13 07:12:10;;;;;;;6.03;3.45;;;;;;;25.72;43.79;100187.91;4301504;33;33868;-65
2023/08/13 07:14:38;;;;;;;9.10;3.60;;;;;;;25.72;43.92;100187.06;4303252;33;33834;-64
2023/08/13 07:17:06;;;;;;;5.57;3.60;;;;;;;25.73;44.02;100192.28;4289782;33;33713;-63
2023/08/13 07:19:34;;;;;;;7.07;3.72;;;;;;;25.74;44.11;100196.72;4266339;33;33800;-63
2023/08/13 07:22:02;;;;;;;8.00;3.28;;;;;;;25.75;44.24;100197.56;4303199;33;33472;-63
2023/08/13 07:24:29;;;;;;;6.18;3.50;;;;;;;25.73;44.38;100196.94;4276863;33;33291;-63
2023/08/13 07:26:57;;;;;;;6.22;3.58;;;;;;;25.76;44.83;100196.50;4302246;33;34689;-63
2023/08/13 07:29:24;;;;;;;5.78;3.83;;;;;;;25.77;44.97;100201.72;4303050;33;33904;-62
2023/08/13 07:31:52;;;;;;;6.10;3.58;;;;;;;25.78;45.18;100199.84;4303106;33;32961;-63
2023/08/13 07:34:20;;;;;;;8.55;3.70;;;;;;;25.79;45.29;100196.06;4301816;33;35084;-62
2023/08/13 07:36:47;;;;;;;8.82;3.58;;;;;;;25.81;45.91;100200.22;4303187;33;34008;-62
2023/08/13 07:39:16;;;;;;;6.15;3.58;;;;;;;25.82;45.83;100190.09;4301563;33;34199;-64
2023/08/13 07:41:46;;;;;;;7.12;3.97;;;;;;;25.84;46.07;100185.25;4278174;33;32481;-63
2023/08/13 07:44:14;;;;;;;6.62;4.32;;;;;;;25.84;46.05;100188.00;4315893;33;33830;-63
2023/08/13 07:46:42;;;;;;;6.95;3.55;;;;;;;25.85;46.04;100195.94;4302779;33;34425;-63
2023/08/13 07:49:09;;;;;;;4.82;3.37;;;;;;;25.87;45.91;100190.22;4310473;33;34374;-63
2023/08/13 07:51:37;;;;;;;5.28;3.22;;;;;;;25.89;45.54;100199.87;4306580;33;34259;-63
2023/08/13 07:54:05;;;;;;;5.05;3.55;;;;;;;25.90;45.32;100196.06;4306543;33;34392;-62
2023/08/13 07:56:32;;;;;;;5.47;3.53;;;;;;;25.96;45.35;100188.84;4317633;33;34000;-63
2023/08/13 07:59:00;;;;;;;5.68;3.40;;;;;;;25.97;45.23;100200.59;4317453;33;33350;-63
2023/08/13 08:01:29;;;;;;;5.60;3.25;;;;;;;25.99;45.16;100196.59;4317535;33;33404;-63
2023/08/13 08:03:57;;;;;;;5.53;3.45;;;;;;;26.00;45.07;100194.69;4317394;33;33456;-62
2023/08/13 08:06:24;;;;;;;4.68;2.90;;;;;;;26.00;44.97;100190.03;4317268;33;34844;-63
2023/08/13 08:08:55;;;;;;;6.62;3.60;;;;;;;26.01;44.74;100190.88;4317493;33;34590;-66
2023/08/13 08:56:26;;;;;;;6.87;3.10;;;;;;;26.01;42.60;100191.69;4665208;27;20088;-65
2023/08/13 08:58:54;;;;;;;4.53;3.17;;;;;;;26.02;42.70;100182.44;4303262;33;34384;-62
2023/08/13 09:01:21;;;;;;;7.37;3.12;;;;;;;26.02;42.65;100190.66;4315196;33;34077;-75
2023/08/13 09:03:48;;;;;;;6.10;3.00;;;;;;;26.07;42.70;100182.56;4303121;33;34873;-72
2023/08/13 09:06:16;;;;;;;7.15;3.12;;;;;;;26.09;42.77;100183.16;4302203;33;33989;-73
2023/08/13 09:08:49;;;;;;;7.35;3.10;;;;;;;26.10;42.74;100181.25;4292455;33;33762;-64
2023/08/13 09:11:20;;;;;;;5.55;3.72;;;;;;;26.10;42.56;100179.34;4301945;33;33300;-73
2023/08/13 09:13:48;;;;;;;4.40;2.95;;;;;;;26.11;42.63;100161.91;4303505;33;34841;-70
2023/08/13 09:16:16;;;;;;;5.95;3.67;;;;;;;26.12;42.68;100162.72;4302218;33;33816;-62
2023/08/13 09:18:44;;;;;;;10.68;5.28;;;;;;;26.14;42.70;100176.97;4308628;33;33877;-61
2023/08/13 09:21:11;;;;;;;13.60;6.00;;;;;;;26.16;42.73;100172.97;4312273;33;33127;-62
2023/08/13 09:23:39;;;;;;;9.32;4.78;;;;;;;26.15;42.82;100173.19;4318252;33;33925;-60
2023/08/13 09:26:07;;;;;;;9.52;6.10;;;;;;;26.14;42.80;100175.09;4304478;33;34488;-60
2023/08/13 09:28:42;;;;;;;12.50;6.65;;;;;;;26.19;42.71;100171.63;4288897;33;34296;-61
2023/08/13 09:31:09;;;;;;;13.32;5.87;;;;;;;26.19;42.71;100172.47;4288664;33;33112;-61
2023/08/13 09:33:37;;;;;;;12.32;6.28;;;;;;;26.18;42.70;100170.81;4277622;33;33515;-61
2023/08/13 09:36:05;;;;;;;15.25;6.05;;;;;;;26.19;42.72;100168.91;4301960;33;33941;-61
2023/08/13 09:38:33;;;;;;;10.32;6.10;;;;;;;26.16;42.76;100170.22;4288503;33;33596;-66
2023/08/13 09:41:00;;;;;;;8.63;4.87;;;;;;;26.17;42.75;100173.78;4302307;33;33507;-67
2023/08/13 09:43:28;;;;;;;7.87;4.87;;;;;;;26.15;42.71;100165.81;4303838;33;34587;-61
2023/08/13 09:46:00;;;;;;;10.93;5.60;;;;;;;26.16;42.63;100164.75;4279789;33;34161;-61
2023/08/13 09:48:28;;;;;;;11.02;5.78;;;;;;;26.16;42.64;100169.37;4290115;33;33823;-62
2023/08/13 09:50:56;;;;;;;13.27;5.80;;;;;;;26.19;42.66;100163.44;4278632;33;33449;-64
2023/08/13 09:53:24;;;;;;;11.50;5.97;;;;;;;26.17;42.91;100162.84;4278511;33;33879;-62
2023/08/13 09:55:54;;;;;;;10.90;5.20;;;;;;;26.18;43.04;100161.78;4289867;33;33957;-62
2023/08/13 09:58:22;;;;;;;8.65;5.32;;;;;;;26.16;43.08;100163.91;4278812;33;33441;-68
2023/08/13 10:00:50;;;;;;;8.68;4.87;;;;;;;26.16;43.12;100163.91;4290058;33;33356;-66
2023/08/13 10:03:18;;;;;;;11.98;5.65;;;;;;;26.16;43.13;100161.16;4274851;33;33024;-64
2023/08/13 10:05:46;;;;;;;10.80;5.97;;;;;;;26.17;43.15;100158.22;4293014;33;33600;-64
2023/08/13 10:08:13;;;;;;;8.73;5.43;;;;;;;26.17;43.17;100158.22;4304854;33;33876;-65
2023/08/13 10:10:41;;;;;;;11.38;5.37;;;;;;;26.18;43.19;100164.50;4302270;33;34144;-69
2023/08/13 10:13:09;;;;;;;9.77;5.18;;;;;;;26.18;43.22;100157.12;4303394;33;33768;-69
2023/08/13 10:15:36;;;;;;;9.13;5.55;;;;;;;26.17;43.24;100150.00;4290689;33;34008;-68
2023/08/13 10:18:04;;;;;;;8.63;5.12;;;;;;;26.18;43.24;100153.56;4290351;33;33848;-62
2023/08/13 10:20:32;;;;;;;8.88;4.97;;;;;;;26.18;43.24;100148.94;4302250;33;33344;-65
2023/08/13 10:23:01;;;;;;;9.13;5.00;;;;;;;26.19;43.24;100155.22;4302306;33;34653;-64
2023/08/13 10:25:32;;;;;;;7.80;4.37;;;;;;;26.20;43.23;100152.25;4301926;33;33594;-69
2023/08/13 10:27:59;;;;;;;10.50;4.90;;;;;;;26.22;43.22;100153.94;4302116;33;34191;-62
2023/08/13 10:30:27;;;;;;;11.23;5.00;;;;;;;26.22;43.22;100154.75;4290542;33;33553;-61
2023/08/13 10:33:01;;;;;;;10.27;4.72;;;;;;;26.23;43.21;100161.06;4302370;33;33499;-65
2023/08/13 10:35:34;;;;;;;7.50;4.85;;;;;;;26.23;43.21;100161.91;4302480;33;33980;-62
2023/08/13 10:38:03;;;;;;;10.35;4.28;;;;;;;26.23;43.18;100155.59;4302295;33;33826;-62
2023/08/13 10:40:30;;;;;;;7.57;4.72;;;;;;;26.24;43.13;100146.31;4303595;33;34383;-63
2023/08/13 10:42:58;;;;;;;10.32;4.78;;;;;;;26.23;43.13;100148.22;4303303;33;34102;-61
2023/08/13 10:45:28;;;;;;;7.50;4.47;;;;;;;26.24;43.10;100147.16;4303374;33;34118;-62
2023/08/13 10:47:57;;;;;;;6.43;4.15;;;;;;;26.22;43.14;100134.78;4290195;33;33997;-61
2023/08/13 10:50:28;;;;;;;8.30;3.80;;;;;;;26.24;43.19;100135.37;4303392;33;33344;-62
2023/08/13 10:53:13;;;;;;;7.57;4.60;;;;;;;26.26;43.24;100144.19;4302094;33;33272;-61
2023/08/13 10:55:41;;;;;;;7.87;4.65;;;;;;;26.25;43.36;100135.13;4303046;33;34004;-63
2023/08/13 10:58:25;;;;;;;7.28;4.00;;;;;;;26.25;43.42;100137.84;4292897;33;33412;-64
2023/08/13 11:00:57;;;;;;;6.85;4.20;;;;;;;26.27;43.40;100134.91;4292424;33;32423;-63
2023/08/13 11:03:33;;;;;;;7.43;4.07;;;;;;;26.26;43.51;100133.25;4304821;33;33469;-67
2023/08/13 11:06:01;;;;;;;8.13;3.97;;;;;;;26.26;43.60;100127.78;4293477;33;34695;-67
2023/08/13 11:08:29;;;;;;;6.05;4.07;;;;;;;26.27;43.60;100130.25;4304798;33;33837;-61
2023/08/13 11:11:17;;;;;;;7.32;4.32;;;;;;;26.28;43.67;100131.09;4304417;33;33264;-65
2023/08/13 11:13:45;;;;;;;6.10;3.75;;;;;;;26.28;43.77;100120.97;4292465;33;32990;-69
2023/08/13 11:16:13;;;;;;;8.30;4.25;;;;;;;26.29;43.79;100125.37;4280562;33;33140;-64
2023/08/13 11:18:40;;;;;;;7.62;4.12;;;;;;;26.31;43.72;100131.47;4304282;33;34776;-63
2023/08/13 11:21:08;;;;;;;9.20;4.47;;;;;;;26.32;43.66;100124.09;4292575;33;34327;-63
2023/08/13 11:23:36;;;;;;;7.30;4.07;;;;;;;26.34;43.61;100132.88;4304322;33;34327;-62
2023/08/13 11:26:04;;;;;;;6.70;4.10;;;;;;;26.34;43.55;100130.97;4317904;33;33700;-75
2023/08/13 11:28:31;;;;;;;5.85;3.92;;;;;;;26.35;43.53;100129.91;4292660;33;33539;-63
2023/08/13 11:30:59;;;;;;;7.10;3.67;;;;;;;26.36;43.55;100131.56;4304577;33;33927;-69
2023/08/13 11:33:27;;;;;;;6.40;3.60;;;;;;;26.36;43.61;100122.53;4317697;33;33718;-62
2023/08/13 11:35:55;;;;;;;5.82;3.45;;;;;;;26.36;43.62;100120.62;4304371;33;33941;-62
2023/08/13 11:38:23;;;;;;;8.30;3.78;;;;;;;26.38;43.66;100126.69;4303802;33;34237;-62
2023/08/13 11:40:50;;;;;;;6.65;3.55;;;;;;;26.38;43.70;100121.22;4292376;33;32377;-64
2023/08/13 11:43:22;;;;;;;7.95;3.67;;;;;;;26.40;43.69;100131.94;4292050;33;34409;-66
2023/08/13 11:45:50;;;;;;;5.80;3.72;;;;;;;26.40;43.69;100129.19;4317525;33;33927;-67
2023/08/13 11:48:21;;;;;;;7.65;3.60;;;;;;;26.41;43.75;100126.22;4317430;33;34221;-73
2023/08/13 11:50:52;;;;;;;7.28;3.70;;;;;;;26.40;43.82;100127.28;4292225;33;32342;-68
2023/08/13 11:53:42;;;;;;;7.07;4.12;;;;;;;26.43;43.82;100123.25;4295990;33;33587;-69
2023/08/13 11:56:10;;;;;;;6.75;3.87;;;;;;;26.44;43.79;100119.47;4316886;33;34831;-65
2023/08/13 11:58:38;;;;;;;7.93;4.12;;;;;;;26.43;43.81;100104.13;4317598;33;34842;-67
2023/08/13 12:01:05;;;;;;;8.50;4.00;;;;;;;26.43;43.87;100115.88;4292277;33;33149;-66
2023/08/13 12:03:37;;;;;;;8.93;3.92;;;;;;;26.44;43.89;100119.47;4317288;33;34838;-71
2023/08/13 12:06:05;;;;;;;6.32;3.60;;;;;;;26.44;43.91;100117.56;4304091;33;34507;-72
2023/08/13 12:08:32;;;;;;;6.68;3.80;;;;;;;26.45;43.89;100116.50;4280188;33;32915;-68
2023/08/13 12:11:00;;;;;;;5.37;3.65;;;;;;;26.47;43.90;100109.94;4289728;33;33525;-63
2023/08/13 12:13:28;;;;;;;5.68;3.60;;;;;;;26.46;43.93;100114.59;4301590;33;34794;-69
2023/08/13 12:15:56;;;;;;;7.25;4.18;;;;;;;26.48;43.93;100117.06;4289856;33;34395;-67